Grand Mercury — HOOC — position and weather

sailwx.info

Track history (hours):
 
Tides and Currents Weather Stations Pressure Air Temp Water Temp Dewpoint Dewpoint Depression Visibility Wind Speed Wind Dir Waves Ship Positions

Grand Mercury

Last reported at 2015-Apr-19 16:29 UTC. Time now 2015-Apr-21 14:45 UTC.
Position N 37°46' E 123°24'.

Length 200 m; draft 8.7 m.

Type: Cargo ship. MMSI: 355649000.

Date/timePositionNaut miles runAvg speedWind from/ knotsBaromVisibWave heightAir tempDewpointWater temp
2015-Apr-19 16:29N 37°46' E 123°24'2119.4
2015-Apr-19 15:25N 37°56' E 123°00'2019.0
2015-Apr-19 14:21N 38°03' E 122°37'3318.3
2015-Apr-19 12:33N 38°15' E 121°57'5816.8
2015-Apr-19 09:06N 38°34' E 120°47'12516.5
2015-Apr-19 01:30N 38°53' E 118°09'1112.1
2015-Apr-19 00:33N 38°57' E 117°55'8 7.3
2015-Apr-18 23:28N 39°01' E 117°46'0 0.0
2015-Apr-18 22:28N 39°01' E 117°46'0 0.0
2015-Apr-18 21:22N 39°01' E 117°46'0 0.0
2015-Apr-18 20:28N 39°01' E 117°46'0 0.0
2015-Apr-18 19:28N 39°01' E 117°46'0 0.0
2015-Apr-18 18:28N 39°01' E 117°46'0 0.0
2015-Apr-18 17:28N 39°01' E 117°46'0 0.0
2015-Apr-18 16:33N 39°01' E 117°46'0 0.0
2015-Apr-18 15:33N 39°01' E 117°46'0 0.0
2015-Apr-18 11:33N 39°01' E 117°46'0 0.0
2015-Apr-18 10:33N 39°01' E 117°46'0 0.0
2015-Apr-18 09:30N 39°01' E 117°46'0 0.0
2015-Apr-18 08:29N 39°01' E 117°46'0 0.0
2015-Apr-18 07:32N 39°01' E 117°46'0 0.0
2015-Apr-18 06:31N 39°01' E 117°46'0 0.0
2015-Apr-18 05:33N 39°01' E 117°46'0 0.0
2015-Apr-18 04:33N 39°01' E 117°46'0 0.0
2015-Apr-18 03:33N 39°01' E 117°46'2 1.8
2015-Apr-18 02:33N 38°60' E 117°47'1111.1
2015-Apr-18 01:33N 38°56' E 118°01'1310.4
2015-Apr-18 00:21N 38°52' E 118°16'1012.5
2015-Apr-17 23:33N 38°51' E 118°28'5011.9
2015-Apr-17 19:18N 38°46' E 119°33'810.3
2015-Apr-17 18:33N 38°45' E 119°43'1110.0
2015-Apr-17 17:26N 38°44' E 119°57'37214.1
2015-Apr-16 15:07N 33°18' E 123°39'1118.8
2015-Apr-16 14:33N 33°07' E 123°39'1817.9
2015-Apr-16 13:33N 32°50' E 123°35'3818.5
2015-Apr-16 11:32N 32°14' E 123°24'3417.1
2015-Apr-16 09:31N 31°41' E 123°09'3516.8
2015-Apr-16 07:25N 31°10' E 122°51'2614.0
2015-Apr-16 05:33N 31°06' E 122°20'1414.4
2015-Apr-16 04:33N 31°13' E 122°06'1313.5
2015-Apr-16 03:33N 31°16' E 121°51'9 8.8
2015-Apr-16 02:33N 31°19' E 121°41'0 0.0
2015-Apr-16 01:30N 31°19' E 121°41'0 0.0
2015-Apr-16 00:30N 31°19' E 121°41'0 0.0
2015-Apr-15 23:30N 31°19' E 121°41'0 0.0
2015-Apr-15 22:33N 31°19' E 121°41'0 0.0
2015-Apr-15 21:33N 31°19' E 121°41'0 0.0
2015-Apr-15 20:33N 31°19' E 121°41'0 0.0
2015-Apr-15 19:30N 31°19' E 121°41'0 0.0
2015-Apr-15 18:33N 31°19' E 121°41'0 0.0
2015-Apr-15 17:33N 31°19' E 121°41'0 0.0
2015-Apr-15 16:30N 31°19' E 121°41'0 0.0
2015-Apr-15 15:33N 31°19' E 121°41'0 0.0
2015-Apr-15 14:33N 31°19' E 121°41'2 2.0
2015-Apr-15 13:34N 31°19' E 121°43'10 9.6
2015-Apr-15 12:34N 31°16' E 121°54'1111.0
2015-Apr-15 11:34N 31°13' E 122°06'1110.6
2015-Apr-15 10:33N 31°07' E 122°17'9 8.8
2015-Apr-15 09:34N 31°07' E 122°27'9 9.2
2015-Apr-15 08:33N 31°07' E 122°38'1010.1
2015-Apr-15 07:34N 31°07' E 122°49'9 8.6
2015-Apr-15 06:33N 31°10' E 122°58'1413.0
2015-Apr-15 05:28N 31°16' E 123°13'9 9.6
2015-Apr-15 04:33N 31°21' E 123°22'6 2.8
2015-Apr-15 02:33N 31°21' E 123°16'3 2.2
2015-Apr-15 01:24N 31°21' E 123°13'2 2.0
2015-Apr-15 00:33N 31°21' E 123°11'2 1.8
2015-Apr-14 23:31N 31°20' E 123°09'1 1.1
2015-Apr-14 22:33N 31°19' E 123°08'1 0.6
2015-Apr-14 21:33N 31°19' E 123°07'1 0.9
2015-Apr-14 20:33N 31°20' E 123°06'0 0.1
2015-Apr-14 19:33N 31°20' E 123°06'1 1.1
2015-Apr-14 18:32N 31°20' E 123°08'7 6.2
2015-Apr-14 17:21N 31°13' E 123°10'2 2.9
2015-Apr-14 16:30N 31°16' E 123°09'1 0.7
2015-Apr-14 15:28N 31°16' E 123°08'  
Track history (hours):
 
Tides and Currents Weather Stations Pressure Air Temp Water Temp Dewpoint Dewpoint Depression Visibility Wind Speed Wind Dir Waves Ship Positions

Grand Mercury

Last reported at 2015-Apr-19 16:29 UTC. Time now 2015-Apr-21 14:45 UTC.
Position N 37°46' E 123°24'.

Length 200 m; draft 8.7 m.

Type: Cargo ship. MMSI: 355649000.

Date/timePositionNaut miles runAvg speedWind from/ knotsBaromVisibWave heightAir tempDewpointWater temp
2015-Apr-19 16:29N 37°46' E 123°24'2119.4
2015-Apr-19 15:25N 37°56' E 123°00'2019.0
2015-Apr-19 14:21N 38°03' E 122°37'3318.3
2015-Apr-19 12:33N 38°15' E 121°57'5816.8
2015-Apr-19 09:06N 38°34' E 120°47'12516.5
2015-Apr-19 01:30N 38°53' E 118°09'1112.1
2015-Apr-19 00:33N 38°57' E 117°55'8 7.3
2015-Apr-18 23:28N 39°01' E 117°46'0 0.0
2015-Apr-18 22:28N 39°01' E 117°46'0 0.0
2015-Apr-18 21:22N 39°01' E 117°46'0 0.0
2015-Apr-18 20:28N 39°01' E 117°46'0 0.0
2015-Apr-18 19:28N 39°01' E 117°46'0 0.0
2015-Apr-18 18:28N 39°01' E 117°46'0 0.0
2015-Apr-18 17:28N 39°01' E 117°46'0 0.0
2015-Apr-18 16:33N 39°01' E 117°46'0 0.0
2015-Apr-18 15:33N 39°01' E 117°46'0 0.0
2015-Apr-18 11:33N 39°01' E 117°46'0 0.0
2015-Apr-18 10:33N 39°01' E 117°46'0 0.0
2015-Apr-18 09:30N 39°01' E 117°46'0 0.0
2015-Apr-18 08:29N 39°01' E 117°46'0 0.0
2015-Apr-18 07:32N 39°01' E 117°46'0 0.0
2015-Apr-18 06:31N 39°01' E 117°46'0 0.0
2015-Apr-18 05:33N 39°01' E 117°46'0 0.0
2015-Apr-18 04:33N 39°01' E 117°46'0 0.0
2015-Apr-18 03:33N 39°01' E 117°46'2 1.8
2015-Apr-18 02:33N 38°60' E 117°47'1111.1
2015-Apr-18 01:33N 38°56' E 118°01'1310.4
2015-Apr-18 00:21N 38°52' E 118°16'1012.5
2015-Apr-17 23:33N 38°51' E 118°28'5011.9
2015-Apr-17 19:18N 38°46' E 119°33'810.3
2015-Apr-17 18:33N 38°45' E 119°43'1110.0
2015-Apr-17 17:26N 38°44' E 119°57'37214.1
2015-Apr-16 15:07N 33°18' E 123°39'1118.8
2015-Apr-16 14:33N 33°07' E 123°39'1817.9
2015-Apr-16 13:33N 32°50' E 123°35'3818.5
2015-Apr-16 11:32N 32°14' E 123°24'3417.1
2015-Apr-16 09:31N 31°41' E 123°09'3516.8
2015-Apr-16 07:25N 31°10' E 122°51'2614.0
2015-Apr-16 05:33N 31°06' E 122°20'1414.4
2015-Apr-16 04:33N 31°13' E 122°06'1313.5
2015-Apr-16 03:33N 31°16' E 121°51'9 8.8
2015-Apr-16 02:33N 31°19' E 121°41'0 0.0
2015-Apr-16 01:30N 31°19' E 121°41'0 0.0
2015-Apr-16 00:30N 31°19' E 121°41'0 0.0
2015-Apr-15 23:30N 31°19' E 121°41'0 0.0
2015-Apr-15 22:33N 31°19' E 121°41'0 0.0
2015-Apr-15 21:33N 31°19' E 121°41'0 0.0
2015-Apr-15 20:33N 31°19' E 121°41'0 0.0
2015-Apr-15 19:30N 31°19' E 121°41'0 0.0
2015-Apr-15 18:33N 31°19' E 121°41'0 0.0
2015-Apr-15 17:33N 31°19' E 121°41'0 0.0
2015-Apr-15 16:30N 31°19' E 121°41'0 0.0
2015-Apr-15 15:33N 31°19' E 121°41'0 0.0
2015-Apr-15 14:33N 31°19' E 121°41'2 2.0
2015-Apr-15 13:34N 31°19' E 121°43'10 9.6
2015-Apr-15 12:34N 31°16' E 121°54'1111.0
2015-Apr-15 11:34N 31°13' E 122°06'1110.6
2015-Apr-15 10:33N 31°07' E 122°17'9 8.8
2015-Apr-15 09:34N 31°07' E 122°27'9 9.2
2015-Apr-15 08:33N 31°07' E 122°38'1010.1
2015-Apr-15 07:34N 31°07' E 122°49'9 8.6
2015-Apr-15 06:33N 31°10' E 122°58'1413.0
2015-Apr-15 05:28N 31°16' E 123°13'9 9.6
2015-Apr-15 04:33N 31°21' E 123°22'6 2.8
2015-Apr-15 02:33N 31°21' E 123°16'3 2.2
2015-Apr-15 01:24N 31°21' E 123°13'2 2.0
2015-Apr-15 00:33N 31°21' E 123°11'2 1.8
2015-Apr-14 23:31N 31°20' E 123°09'1 1.1
2015-Apr-14 22:33N 31°19' E 123°08'1 0.6
2015-Apr-14 21:33N 31°19' E 123°07'1 0.9
2015-Apr-14 20:33N 31°20' E 123°06'0 0.1
2015-Apr-14 19:33N 31°20' E 123°06'1 1.1
2015-Apr-14 18:32N 31°20' E 123°08'7 6.2
2015-Apr-14 17:21N 31°13' E 123°10'2 2.9
2015-Apr-14 16:30N 31°16' E 123°09'1 0.7
2015-Apr-14 15:28N 31°16' E 123°08'  

Dump ship's entire track history